Aeroporto :
LOGIN :

Iscrizione | Disclaimer

   EN    FR    IT 

 










Sommario :    VFR   VFR Marginale   IFR   IFR Intensivo   IFR Molto Intensivo
Visibilità : 
Base nubi : 
>= 8 km
>= 3000ft
5 / 8 km
1000 / 3000 ft
1500m / 5 km
500 / 1000 ft
800 / 1500m
200 / 500 ft
< 800m
< 200 ft
Simboli :   Temporali  Nebbia  Neve Forte  Precipitazioni Forti  Vento > 20 kt
SIGMETs :   Varie  Temporali  Ghiacco  Turbolenza  Onda orograficha  Ceneri Vulcaniche






- Altitudine del aeroporto : 157 ft
- Codice IATA : LIL


LFQQ - Lille Lesquin

ULTIMO METAR :
  • 210030Z AUTO 07007KT 7000 NSC M00/M01 Q1009 BECMG OVC008

METARs OBSOLETI :
  • 210000Z AUTO 07007KT 7000 NSC M01/M02 Q1009 BECMG OVC008
  • 202330Z AUTO 07007KT 8000 NSC M00/M01 Q1010 BECMG OVC008
  • 202300Z AUTO 07005KT 8000 NSC M01/M02 Q1010 NOSIG
  • 202230Z AUTO 07006KT 9000 NSC M01/M02 Q1010 NOSIG
  • 202200Z AUTO 08006KT 9000 NSC M01/M02 Q1011 NOSIG

TAF TAF LFQQ
Valido dal 21 a 00 ore il 22 a 06 ore UTC


202300Z 2100/2206 08006KT 8000 NSC
BECMG 2101/2104 OVC008
TEMPO 2104/2109 OVC004
BECMG 2110/2112 14010KT
BECMG 2113/2116 NSC
ATIS : +33 3 20 16 19 54



MetMap, La meteo Aeronautica in un colpo d'occhio ! - Copyright ORBIFLY Dicembre 2007 - Disclaimer

ORBIFLY MET'MAP TEAM :

Programmazione e sviluppo : Alexandra Zaïnal
Concezione e sviluppo : Baudouin d'Aumeries
Co-Programmazione e sviluppo : Marc-Olivier Méhu
Supporto tecnico e logistico : Manuel Goepfert
Aiuto per la traduzione : Arnaldo La Scala

Contatto : metmap@orbifly.com




FONTI E CREDITI :

   NOAA